createdAt,value
2023-05-05T00:00:12.758Z,101216.64
2023-05-05T00:02:59.961Z,101212.88
2023-05-05T00:05:26.640Z,101208.19
2023-05-05T00:07:53.528Z,101208.81
2023-05-05T00:10:20.269Z,101211.67
2023-05-05T00:12:46.947Z,101217.17
2023-05-05T00:15:13.400Z,101215.13
2023-05-05T00:17:40.088Z,101220.66
2023-05-05T00:20:10.608Z,101217.89
2023-05-05T00:22:37.140Z,101219.20
2023-05-05T00:25:04.402Z,101215.88
2023-05-05T00:27:30.927Z,101214.01
2023-05-05T00:29:57.467Z,101212.81
2023-05-05T00:32:24.203Z,101209.84
2023-05-05T00:34:51.252Z,101204.77
2023-05-05T00:37:17.707Z,101169.02
2023-05-05T00:39:44.704Z,101201.05
2023-05-05T00:42:11.557Z,101192.46
2023-05-05T00:44:40.931Z,101191.77
2023-05-05T00:47:09.078Z,101191.74
2023-05-05T00:49:36.328Z,101182.50
2023-05-05T00:52:04.415Z,101196.54
2023-05-05T00:54:31.371Z,101198.10
2023-05-05T00:56:57.868Z,101197.33
2023-05-05T00:59:25.240Z,101199.09
2023-05-05T01:01:52.209Z,101200.63
2023-05-05T01:04:18.760Z,101199.48
2023-05-05T01:07:07.767Z,101196.87
2023-05-05T01:10:20.131Z,101195.42
2023-05-05T01:13:19.326Z,101192.91
2023-05-05T01:15:52.886Z,101194.20
2023-05-05T01:18:39.916Z,101193.29
2023-05-05T01:21:14.780Z,101189.73
2023-05-05T01:24:06.409Z,101183.20
2023-05-05T01:26:49.624Z,101186.58
2023-05-05T01:29:37.975Z,101183.75
2023-05-05T01:32:14.232Z,101186.06
2023-05-05T01:35:01.669Z,101187.59
2023-05-05T01:37:42.851Z,101185.55
2023-05-05T01:40:13.863Z,101185.47
2023-05-05T01:42:43.104Z,101181.77
2023-05-05T01:45:12.336Z,101180.70
2023-05-05T01:47:41.499Z,101177.64
2023-05-05T01:50:10.191Z,101173.66
2023-05-05T01:52:38.562Z,101171.93
2023-05-05T01:55:07.995Z,101171.53
2023-05-05T01:57:37.743Z,101170.55
2023-05-05T02:00:05.822Z,101171.02
2023-05-05T02:02:44.731Z,101165.71
2023-05-05T02:05:12.861Z,101165.98
2023-05-05T02:07:39.798Z,101163.77
2023-05-05T02:10:07.610Z,101172.16
2023-05-05T02:12:36.863Z,101179.09
2023-05-05T02:15:05.129Z,101171.77
2023-05-05T02:17:32.931Z,101162.80
2023-05-05T02:20:03.461Z,101159.61
2023-05-05T02:22:30.927Z,101156.80
2023-05-05T02:24:58.003Z,101161.73
2023-05-05T02:27:26.596Z,101162.69
2023-05-05T02:29:58.815Z,101159.26
2023-05-05T02:32:34.487Z,101158.09
2023-05-05T02:35:10.565Z,101154.66
2023-05-05T02:37:43.342Z,101156.86
2023-05-05T02:40:11.745Z,101155.51
2023-05-05T02:42:40.992Z,101156.58
2023-05-05T02:45:21.724Z,101154.16
2023-05-05T02:47:48.872Z,101148.88
2023-05-05T02:50:15.777Z,101144.52
2023-05-05T02:52:48.335Z,101145.92
2023-05-05T02:55:15.877Z,101152.23
2023-05-05T02:58:00.439Z,101149.98
2023-05-05T03:00:30.453Z,101151.80
2023-05-05T03:03:36.096Z,101153.38
2023-05-05T03:06:20.714Z,101150.07
2023-05-05T03:09:09.272Z,101151.37
2023-05-05T03:11:45.760Z,101149.66
2023-05-05T03:14:17.706Z,101146.94
2023-05-05T03:16:47.225Z,101147.54
2023-05-05T03:19:19.351Z,101149.09
2023-05-05T03:21:47.758Z,101150.42
2023-05-05T03:24:16.182Z,101150.77
2023-05-05T03:26:45.001Z,101150.88
2023-05-05T03:29:12.968Z,101151.48
2023-05-05T03:31:40.463Z,101150.56
2023-05-05T03:34:07.867Z,101145.27
2023-05-05T03:36:39.624Z,101145.39
2023-05-05T03:39:08.810Z,101148.48
2023-05-05T03:41:35.556Z,101151.20
2023-05-05T03:44:02.477Z,101151.80
2023-05-05T03:46:29.373Z,101147.27
2023-05-05T03:48:58.752Z,101148.53
2023-05-05T03:51:26.257Z,101147.89
2023-05-05T03:53:53.052Z,101150.04
2023-05-05T03:56:19.817Z,101150.58
2023-05-05T03:58:46.291Z,101154.44
2023-05-05T04:01:13.403Z,101155.98
2023-05-05T04:03:40.343Z,101154.23
2023-05-05T04:06:07.171Z,101152.90
2023-05-05T04:08:34.116Z,101138.84
2023-05-05T04:11:01.956Z,101159.10
2023-05-05T04:13:28.935Z,101136.17
2023-05-05T04:15:56.149Z,101155.53
2023-05-05T04:18:23.226Z,101156.48
2023-05-05T04:20:50.297Z,101155.63
2023-05-05T04:23:17.117Z,101159.14
2023-05-05T04:25:45.130Z,101160.35
2023-05-05T04:28:12.033Z,101165.73
2023-05-05T04:30:39.051Z,101163.53
2023-05-05T04:33:06.244Z,101163.84
2023-05-05T04:35:33.153Z,101148.64
2023-05-05T04:37:59.879Z,101167.80
2023-05-05T04:40:27.343Z,101169.85
2023-05-05T04:42:54.238Z,101174.23
2023-05-05T04:45:21.623Z,101177.12
2023-05-05T04:47:48.398Z,101181.80
2023-05-05T04:50:15.961Z,101183.13
2023-05-05T04:52:42.636Z,101180.35
2023-05-05T04:55:10.934Z,101173.19
2023-05-05T04:57:37.843Z,101173.98
2023-05-05T05:00:06.081Z,101174.04
2023-05-05T05:02:33.071Z,101177.81
2023-05-05T05:04:59.771Z,101176.59
2023-05-05T05:07:26.414Z,101179.59
2023-05-05T05:09:53.151Z,101185.59
2023-05-05T05:12:20.500Z,101194.78
2023-05-05T05:14:47.235Z,101205.44
2023-05-05T05:17:14.264Z,101210.08
2023-05-05T05:19:41.197Z,101210.35
2023-05-05T05:22:08.621Z,101206.46
2023-05-05T05:24:37.464Z,101211.17
2023-05-05T05:27:09.202Z,101218.73
2023-05-05T05:29:37.499Z,101206.18
2023-05-05T05:32:04.335Z,101218.83
2023-05-05T05:34:30.863Z,101210.76
2023-05-05T05:36:58.284Z,101210.61
2023-05-05T05:39:24.946Z,101213.76
2023-05-05T05:41:51.528Z,101212.08
2023-05-05T05:44:18.492Z,101209.36
2023-05-05T05:46:45.074Z,101213.39
2023-05-05T05:49:11.639Z,101212.73
2023-05-05T05:51:38.349Z,101215.23
2023-05-05T05:54:04.997Z,101219.27
2023-05-05T05:56:31.996Z,101217.27
2023-05-05T05:58:58.929Z,101215.17
2023-05-05T06:01:25.570Z,101211.83
2023-05-05T06:03:52.899Z,101216.59
2023-05-05T06:06:20.247Z,101214.56
2023-05-05T06:08:46.821Z,101214.84
2023-05-05T06:11:13.396Z,101213.48
2023-05-05T06:13:41.545Z,101214.79
2023-05-05T06:16:08.243Z,101218.80
2023-05-05T06:18:34.761Z,101213.59
2023-05-05T06:21:02.084Z,101216.25
2023-05-05T06:23:28.826Z,101217.84
2023-05-05T06:25:59.079Z,101215.80
2023-05-05T06:28:25.795Z,101213.67
2023-05-05T06:30:52.376Z,101214.52
2023-05-05T06:33:18.916Z,101214.77
2023-05-05T06:35:47.282Z,101211.58
2023-05-05T06:38:14.129Z,101217.75
2023-05-05T06:40:41.502Z,101219.64
2023-05-05T06:43:08.391Z,101222.16
2023-05-05T06:45:41.067Z,101225.46
2023-05-05T06:48:09.070Z,101230.45
2023-05-05T06:50:35.954Z,101229.89
2023-05-05T06:53:02.523Z,101228.65
2023-05-05T06:55:29.209Z,101232.02
2023-05-05T06:57:55.872Z,101233.48
2023-05-05T07:00:23.040Z,101236.45
2023-05-05T07:02:49.751Z,101231.95
2023-05-05T07:05:16.546Z,101235.30
2023-05-05T07:07:53.587Z,101239.25
2023-05-05T07:10:22.075Z,101241.10
2023-05-05T07:12:49.497Z,101239.86
2023-05-05T07:15:26.819Z,101236.02
2023-05-05T07:17:55.089Z,101234.86
2023-05-05T07:20:21.695Z,101237.88
2023-05-05T07:22:48.171Z,101238.98
2023-05-05T07:25:14.855Z,101239.77
2023-05-05T07:27:41.658Z,101238.63
2023-05-05T07:30:12.986Z,101241.86
2023-05-05T07:32:41.191Z,101242.05
2023-05-05T07:35:08.051Z,101245.73
2023-05-05T07:37:34.655Z,101243.95
2023-05-05T07:40:01.255Z,101244.52
2023-05-05T07:42:27.913Z,101244.13
2023-05-05T07:44:54.700Z,101241.25
2023-05-05T07:47:21.325Z,101238.04
2023-05-05T07:49:47.959Z,101239.50
2023-05-05T07:52:14.536Z,101235.92
2023-05-05T07:54:41.899Z,101235.84
2023-05-05T07:57:08.571Z,101236.75
2023-05-05T07:59:35.480Z,101233.83
2023-05-05T08:02:02.286Z,101230.08
2023-05-05T08:04:28.970Z,101229.83
2023-05-05T08:06:55.796Z,101230.35
2023-05-05T08:09:22.427Z,101236.27
2023-05-05T08:11:49.299Z,101238.58
2023-05-05T08:14:16.036Z,101238.89
2023-05-05T08:16:42.646Z,101239.05
2023-05-05T08:19:21.192Z,101239.55
2023-05-05T08:21:52.082Z,101241.05
2023-05-05T08:24:18.769Z,101242.25
2023-05-05T08:26:45.301Z,101243.20
2023-05-05T08:29:12.006Z,101237.40
2023-05-05T08:31:39.026Z,101236.49
2023-05-05T08:34:06.297Z,101238.29
2023-05-05T08:36:33.087Z,101236.77
2023-05-05T08:38:59.828Z,101236.61
2023-05-05T08:41:27.381Z,101238.52
2023-05-05T08:43:54.133Z,101228.13
2023-05-05T08:46:21.501Z,101237.33
2023-05-05T08:48:48.213Z,101236.10
2023-05-05T08:51:19.766Z,101237.95
2023-05-05T08:53:51.165Z,101238.08
2023-05-05T08:56:19.078Z,101237.48
2023-05-05T08:58:48.142Z,101231.36
2023-05-05T09:01:16.421Z,101230.02
2023-05-05T09:03:46.812Z,101231.20
2023-05-05T09:06:13.550Z,101227.71
2023-05-05T09:08:40.747Z,101228.18
2023-05-05T09:11:07.596Z,101226.25
2023-05-05T09:13:34.306Z,101228.33
2023-05-05T09:16:01.077Z,101225.94
2023-05-05T09:18:28.596Z,101229.98
2023-05-05T09:20:56.867Z,101227.15
2023-05-05T09:23:25.514Z,101225.94
2023-05-05T09:26:08.366Z,101227.45
2023-05-05T09:28:38.782Z,101229.21
2023-05-05T09:31:15.522Z,101228.43
2023-05-05T09:33:42.938Z,101231.70
2023-05-05T09:36:09.522Z,101226.41
2023-05-05T09:38:36.352Z,101233.52
2023-05-05T09:41:04.792Z,101233.45
2023-05-05T09:43:49.419Z,101231.30
2023-05-05T09:46:25.535Z,101233.02
2023-05-05T09:48:54.389Z,101236.00
2023-05-05T09:51:31.191Z,101217.67
2023-05-05T09:53:57.758Z,101232.64
2023-05-05T09:56:37.823Z,101231.25
2023-05-05T09:59:11.432Z,101233.61
2023-05-05T10:01:38.582Z,101236.15
2023-05-05T10:04:05.475Z,101237.02
2023-05-05T10:06:47.750Z,101233.85
2023-05-05T10:09:14.633Z,101230.38
2023-05-05T10:11:41.988Z,101235.45
2023-05-05T10:14:12.598Z,101233.77
2023-05-05T10:16:45.486Z,101234.49
2023-05-05T10:19:14.981Z,101224.87
2023-05-05T10:21:54.020Z,101225.07
2023-05-05T10:24:33.115Z,101226.06
2023-05-05T10:27:04.830Z,101224.59
2023-05-05T10:29:41.825Z,101220.08
2023-05-05T10:32:56.402Z,101221.59
2023-05-05T10:35:24.115Z,101224.98
2023-05-05T10:37:51.780Z,101221.00
2023-05-05T10:40:21.679Z,101222.96
2023-05-05T10:42:50.336Z,101219.77
2023-05-05T10:45:17.032Z,101220.56
2023-05-05T10:47:43.825Z,101223.55
2023-05-05T10:50:28.531Z,101227.40
2023-05-05T10:53:07.882Z,101228.52
2023-05-05T10:55:40.905Z,101229.80
2023-05-05T10:58:07.428Z,101218.77
2023-05-05T11:00:40.455Z,101217.05
2023-05-05T11:03:16.599Z,101217.64
2023-05-05T11:06:07.938Z,101214.67
2023-05-05T11:08:39.884Z,101215.65
2023-05-05T11:11:07.445Z,101219.38
2023-05-05T11:13:34.054Z,101213.52
2023-05-05T11:16:04.103Z,101215.89
2023-05-05T11:18:38.553Z,101214.17
2023-05-05T11:21:17.508Z,101212.58
2023-05-05T11:23:46.092Z,101213.55
2023-05-05T11:26:14.451Z,101215.98
2023-05-05T11:28:55.419Z,101211.00
2023-05-05T11:31:22.358Z,101215.81
2023-05-05T11:33:49.360Z,101216.30
2023-05-05T11:36:17.450Z,101213.02
2023-05-05T11:39:05.440Z,101217.61
2023-05-05T11:41:32.189Z,101217.52
2023-05-05T11:44:15.945Z,101217.29
2023-05-05T11:46:51.636Z,101218.52
2023-05-05T11:49:32.426Z,101215.89
2023-05-05T11:52:04.340Z,101212.80
2023-05-05T11:54:32.895Z,101218.30
2023-05-05T11:57:06.568Z,101216.87
2023-05-05T11:59:49.617Z,101211.77
2023-05-05T12:02:19.418Z,101206.39
2023-05-05T12:04:47.454Z,101209.96
2023-05-05T12:07:19.123Z,101212.88
2023-05-05T12:09:50.411Z,101213.09
2023-05-05T12:12:18.203Z,101211.17
2023-05-05T12:14:46.445Z,101211.80
2023-05-05T12:17:13.353Z,101213.14
2023-05-05T12:19:48.267Z,101216.29
2023-05-05T12:22:26.045Z,101222.10
2023-05-05T12:25:04.420Z,101217.91
2023-05-05T12:27:31.814Z,101217.56
2023-05-05T12:30:11.667Z,101218.17
2023-05-05T12:32:38.679Z,101214.85
2023-05-05T12:35:07.304Z,101219.89
2023-05-05T12:37:34.596Z,101219.27
2023-05-05T12:40:01.536Z,101223.41
2023-05-05T12:42:28.264Z,101225.94
2023-05-05T12:44:55.313Z,101225.66
2023-05-05T12:47:32.732Z,101230.73
2023-05-05T12:50:02.488Z,101224.80
2023-05-05T12:52:43.838Z,101218.33
2023-05-05T12:55:11.141Z,101227.00
2023-05-05T12:57:38.627Z,101229.31
2023-05-05T13:00:16.318Z,101232.54
2023-05-05T13:02:43.130Z,101234.77
2023-05-05T13:05:09.970Z,101228.06
2023-05-05T13:07:49.792Z,101234.41
2023-05-05T13:10:16.354Z,101233.76
2023-05-05T13:12:43.066Z,101228.91
2023-05-05T13:15:10.537Z,101230.02
2023-05-05T13:17:37.215Z,101233.02
2023-05-05T13:20:04.848Z,101233.68
2023-05-05T13:22:31.621Z,101234.10
2023-05-05T13:24:58.345Z,101226.88
2023-05-05T13:27:25.048Z,101226.05
2023-05-05T13:29:51.762Z,101221.05
2023-05-05T13:32:18.381Z,101228.04
2023-05-05T13:34:45.018Z,101225.75
2023-05-05T13:37:14.007Z,101232.43
2023-05-05T13:39:41.182Z,101228.89
2023-05-05T13:42:09.157Z,101226.34
2023-05-05T13:44:35.834Z,101223.71
2023-05-05T13:47:05.632Z,101222.98
2023-05-05T13:49:33.776Z,101219.80
2023-05-05T13:52:01.043Z,101217.71
2023-05-05T13:54:27.960Z,101213.89
2023-05-05T13:56:54.690Z,101213.91
2023-05-05T13:59:21.444Z,101212.61
2023-05-05T14:01:48.478Z,101212.94
2023-05-05T14:04:15.391Z,101214.93
2023-05-05T14:06:42.133Z,101208.77
2023-05-05T14:09:27.234Z,101209.38
2023-05-05T14:11:58.759Z,101213.29
2023-05-05T14:14:26.601Z,101199.52
2023-05-05T14:16:53.504Z,101205.98
2023-05-05T14:19:20.552Z,101204.25
2023-05-05T14:21:47.611Z,101202.93
2023-05-05T14:24:14.341Z,101205.63
2023-05-05T14:26:42.136Z,101211.66
2023-05-05T14:29:10.965Z,101212.82
2023-05-05T14:31:38.496Z,101203.33
2023-05-05T14:34:05.491Z,101216.30
2023-05-05T14:36:32.239Z,101213.45
2023-05-05T14:38:59.269Z,101211.54
2023-05-05T14:41:29.026Z,101216.16
2023-05-05T14:43:56.595Z,101215.25
2023-05-05T14:46:23.640Z,101219.70
2023-05-05T14:48:55.416Z,101215.53
2023-05-05T14:51:23.317Z,101220.33
2023-05-05T14:53:50.102Z,101217.88
2023-05-05T14:56:16.930Z,101221.43
2023-05-05T14:58:48.884Z,101220.32
2023-05-05T15:01:16.199Z,101221.22
2023-05-05T15:03:43.380Z,101221.08
2023-05-05T15:06:10.823Z,101219.02
2023-05-05T15:08:41.389Z,101216.20
2023-05-05T15:11:08.154Z,101219.42
2023-05-05T15:13:34.889Z,101222.25
2023-05-05T15:16:01.698Z,101223.57
2023-05-05T15:18:28.510Z,101225.89
2023-05-05T15:20:55.447Z,101228.95
2023-05-05T15:23:22.346Z,101232.27
2023-05-05T15:25:49.269Z,101233.09
2023-05-05T15:28:16.766Z,101232.73
2023-05-05T15:30:43.555Z,101235.42
2023-05-05T15:33:10.332Z,101219.77
2023-05-05T15:35:36.967Z,101239.20
2023-05-05T15:38:03.666Z,101235.11
2023-05-05T15:40:30.348Z,101242.23
2023-05-05T15:42:57.021Z,101243.52
2023-05-05T15:45:26.424Z,101248.06
2023-05-05T15:47:59.055Z,101247.04
2023-05-05T15:50:26.331Z,101247.36
2023-05-05T15:52:56.221Z,101247.64
2023-05-05T15:55:25.994Z,101233.98
2023-05-05T15:57:53.179Z,101242.36
2023-05-05T16:00:20.520Z,101241.17
2023-05-05T16:02:47.357Z,101239.70
2023-05-05T16:05:14.270Z,101238.46
2023-05-05T16:07:41.087Z,101244.23
2023-05-05T16:10:09.745Z,101245.02
2023-05-05T16:12:37.100Z,101241.64
2023-05-05T16:15:04.612Z,101242.85
2023-05-05T16:17:31.588Z,101238.10
2023-05-05T16:20:04.579Z,101241.67
2023-05-05T16:22:32.050Z,101237.45
2023-05-05T16:24:59.335Z,101236.70
2023-05-05T16:27:27.121Z,101236.84
2023-05-05T16:29:54.513Z,101235.18
2023-05-05T16:32:21.338Z,101235.38
2023-05-05T16:34:48.481Z,101232.11
2023-05-05T16:37:16.096Z,101239.67
2023-05-05T16:39:43.313Z,101239.60
2023-05-05T16:42:13.612Z,101239.49
2023-05-05T16:44:40.220Z,101234.42
2023-05-05T16:47:07.067Z,101235.98
2023-05-05T16:49:33.704Z,101236.11
2023-05-05T16:52:00.373Z,101239.23
2023-05-05T16:54:28.091Z,101234.38
2023-05-05T16:56:57.841Z,101234.66
2023-05-05T16:59:24.615Z,101231.52
2023-05-05T17:01:52.655Z,101230.02
2023-05-05T17:04:19.384Z,101226.20
2023-05-05T17:06:59.204Z,101197.90
2023-05-05T17:09:26.923Z,101236.57
2023-05-05T17:11:53.705Z,101238.71
2023-05-05T17:14:20.386Z,101239.05
2023-05-05T17:16:46.896Z,101233.39
2023-05-05T17:19:13.609Z,101237.87
2023-05-05T17:21:42.336Z,101244.61
2023-05-05T17:24:09.018Z,101246.39
2023-05-05T17:26:35.848Z,101252.15
2023-05-05T17:29:02.539Z,101250.80
2023-05-05T17:31:29.020Z,101251.20
2023-05-05T17:33:55.666Z,101253.80
2023-05-05T17:36:22.545Z,101254.10
2023-05-05T17:38:49.378Z,101260.67
2023-05-05T17:41:17.492Z,101260.41
2023-05-05T17:43:44.224Z,101260.91
2023-05-05T17:46:10.897Z,101259.29
2023-05-05T17:48:37.419Z,101261.95
2023-05-05T17:51:04.108Z,101270.89
2023-05-05T17:53:30.630Z,101268.70
2023-05-05T17:55:57.168Z,101271.60
2023-05-05T17:58:24.010Z,101265.27
2023-05-05T18:00:50.812Z,101267.96
2023-05-05T18:03:17.424Z,101265.39
2023-05-05T18:05:44.399Z,101267.14
2023-05-05T18:08:11.177Z,101266.79
2023-05-05T18:10:37.718Z,101271.01
2023-05-05T18:13:04.648Z,101272.54
2023-05-05T18:15:31.196Z,101276.98
2023-05-05T18:17:57.929Z,101278.98
2023-05-05T18:20:24.706Z,101281.56
2023-05-05T18:22:51.754Z,101281.77
2023-05-05T18:25:18.655Z,101280.16
2023-05-05T18:27:45.624Z,101280.09
2023-05-05T18:30:12.518Z,101284.02
2023-05-05T18:32:39.198Z,101288.59
2023-05-05T18:35:06.356Z,101288.04
2023-05-05T18:37:32.941Z,101286.67
2023-05-05T18:39:59.493Z,101288.65
2023-05-05T18:42:26.385Z,101289.26
2023-05-05T18:44:52.987Z,101291.01
2023-05-05T18:47:19.897Z,101298.84
2023-05-05T18:49:46.920Z,101297.31
2023-05-05T18:52:13.633Z,101297.64
2023-05-05T18:54:40.410Z,101298.27
2023-05-05T18:57:07.428Z,101299.68
2023-05-05T18:59:34.218Z,101299.11
2023-05-05T19:02:01.807Z,101302.95
2023-05-05T19:04:31.636Z,101305.97
2023-05-05T19:06:59.506Z,101310.39
2023-05-05T19:09:26.972Z,101307.36
2023-05-05T19:11:53.834Z,101305.98
2023-05-05T19:14:22.005Z,101310.52
2023-05-05T19:16:48.907Z,101316.02
2023-05-05T19:19:16.654Z,101315.34
2023-05-05T19:21:43.505Z,101313.48
2023-05-05T19:24:11.104Z,101315.48
2023-05-05T19:26:37.968Z,101315.35
2023-05-05T19:29:04.646Z,101313.20
2023-05-05T19:31:31.695Z,101313.69
2023-05-05T19:34:03.584Z,101308.90
2023-05-05T19:36:31.638Z,101307.36
2023-05-05T19:39:03.056Z,101310.63
2023-05-05T19:41:31.353Z,101308.48
2023-05-05T19:43:58.288Z,101311.83
2023-05-05T19:46:25.963Z,101312.08
2023-05-05T19:48:52.824Z,101311.59
2023-05-05T19:51:19.639Z,101311.16
2023-05-05T19:53:46.136Z,101308.89
2023-05-05T19:56:21.829Z,101305.32
2023-05-05T19:58:56.954Z,101310.39
2023-05-05T20:01:24.033Z,101311.30
2023-05-05T20:03:52.597Z,101312.52
2023-05-05T20:06:21.381Z,101310.56
2023-05-05T20:08:48.092Z,101305.78
2023-05-05T20:11:15.532Z,101307.03
2023-05-05T20:13:42.455Z,101307.55
2023-05-05T20:16:09.912Z,101309.61
2023-05-05T20:18:36.466Z,101309.61
2023-05-05T20:21:03.140Z,101266.29
2023-05-05T20:23:30.063Z,101314.17
2023-05-05T20:25:57.069Z,101312.02
2023-05-05T20:28:23.973Z,101312.26
2023-05-05T20:30:52.067Z,101307.90
2023-05-05T20:33:18.673Z,101307.63
2023-05-05T20:35:45.195Z,101306.60
2023-05-05T20:38:12.076Z,101306.86
2023-05-05T20:40:39.707Z,101304.78
2023-05-05T20:43:06.273Z,101306.07
2023-05-05T20:45:34.416Z,101308.42
2023-05-05T20:48:01.251Z,101307.58
2023-05-05T20:50:27.933Z,101309.69
2023-05-05T20:52:55.191Z,101306.23
2023-05-05T20:55:21.979Z,101301.44
2023-05-05T20:57:48.639Z,101300.23
2023-05-05T21:00:15.642Z,101301.58
2023-05-05T21:02:42.857Z,101297.36
2023-05-05T21:05:10.131Z,101297.38
2023-05-05T21:07:37.129Z,101297.17
2023-05-05T21:10:04.936Z,101295.02
2023-05-05T21:12:33.594Z,101297.45
2023-05-05T21:15:03.188Z,101301.67
2023-05-05T21:17:29.992Z,101302.31
2023-05-05T21:19:56.903Z,101298.05
2023-05-05T21:22:23.829Z,101301.34
2023-05-05T21:24:50.560Z,101306.54
2023-05-05T21:27:17.494Z,101307.30
2023-05-05T21:29:44.303Z,101308.95
2023-05-05T21:32:11.165Z,101308.09
2023-05-05T21:34:38.827Z,101310.17
2023-05-05T21:37:05.987Z,101310.19
2023-05-05T21:39:32.963Z,101311.06
2023-05-05T21:41:59.993Z,101309.94
2023-05-05T21:44:27.651Z,101314.54
2023-05-05T21:46:55.080Z,101313.50
2023-05-05T21:49:21.969Z,101315.03
2023-05-05T21:51:49.772Z,101316.42
2023-05-05T21:54:16.433Z,101313.04
2023-05-05T21:56:42.903Z,101259.79
2023-05-05T21:59:09.596Z,101316.66
2023-05-05T22:01:36.295Z,101314.36
2023-05-05T22:04:03.140Z,101315.97
2023-05-05T22:06:30.138Z,101310.88
2023-05-05T22:08:56.780Z,101308.44
2023-05-05T22:11:23.500Z,101309.69
2023-05-05T22:13:50.359Z,101310.20
2023-05-05T22:16:17.012Z,101305.92
2023-05-05T22:18:44.145Z,101298.13
2023-05-05T22:21:11.183Z,101297.84
2023-05-05T22:23:40.719Z,101298.57
2023-05-05T22:26:08.014Z,101295.76
2023-05-05T22:28:34.693Z,101291.98
2023-05-05T22:31:01.326Z,101292.91
2023-05-05T22:33:28.096Z,101293.92
2023-05-05T22:35:54.723Z,101297.59
2023-05-05T22:38:21.228Z,101298.92
2023-05-05T22:40:47.991Z,101297.88
2023-05-05T22:43:27.619Z,101297.38
2023-05-05T22:45:54.222Z,101296.21
2023-05-05T22:48:21.070Z,101299.58
2023-05-05T22:50:47.685Z,101300.39
2023-05-05T22:53:14.326Z,101297.30
2023-05-05T22:55:40.899Z,101297.34
2023-05-05T22:58:07.595Z,101295.00
2023-05-05T23:00:34.262Z,101294.08
2023-05-05T23:03:00.744Z,101293.64
2023-05-05T23:05:27.391Z,101291.73
2023-05-05T23:07:54.042Z,101291.66
2023-05-05T23:10:22.101Z,101287.90
2023-05-05T23:12:48.935Z,101283.29
2023-05-05T23:15:18.583Z,101279.05
2023-05-05T23:17:47.804Z,101275.70
2023-05-05T23:20:15.268Z,101278.09
2023-05-05T23:22:44.834Z,101282.45
2023-05-05T23:25:12.151Z,101283.08
2023-05-05T23:27:42.768Z,101281.27
2023-05-05T23:30:15.893Z,101281.22
2023-05-05T23:32:44.344Z,101278.66
2023-05-05T23:35:11.269Z,101281.92
2023-05-05T23:37:38.115Z,101276.38
2023-05-05T23:40:07.179Z,101275.77
2023-05-05T23:42:33.820Z,101278.75
2023-05-05T23:45:00.653Z,101280.11
2023-05-05T23:47:27.714Z,101285.58
2023-05-05T23:49:54.174Z,101281.46
2023-05-05T23:52:21.326Z,101280.52
2023-05-05T23:54:48.037Z,101276.98
2023-05-05T23:57:14.617Z,101274.30
2023-05-05T23:59:41.974Z,101271.20
